Schenectady County Airport Schenectady US
ICAO: KSCH
IATA: SCH
Category: Medium
Scheduled Services: No

Elevation: 378 ft
TransAlt. 18000 ft.

Airport Communications:
ALBANY APP/DEP:118.05
AWOS 3:119.275
CTAF:121.3
ANG OPS COMD POST:140.45
TWR:121.3
UNICOM:122.95

KSCH Zoom In..

If you have problems with the map follow the link
https://www.worldairports.se/pages/airport.php?
ICAO=KSCH

Runways:

(A) RW 04 length 7001 ft width 150 ft
ILS 109.70 / hdg 40

(B) RW 10 length 4850 ft width 150 ft
---- / hdg 102

(C) RW 15 length 2864 ft width 50 ft
---- / hdg 147

(D) RW 22 length 7001 ft width 150 ft
---- / hdg 220

(E) RW 28 length 4850 ft width 150 ft
---- / hdg 282

(F) RW 33 length 2864 ft width 50 ft
---- / hdg 327

Location; KSCH
Day. 10 / Time. 02.56 Zulu
* Altimeter: 29.62
* Temperature: 06° c. 42.8°f.
* Wind from: 000° Speed 00 kn.
Dewpoint: 06° c.
Visibility: 1 Statute Miles.
Clouds: Overcast 500 ft.
Conditions: Mist.

KSCH 100256Z 00000KT 1SM BR OVC005 06/06 A2962 RMK LAST


Wind - Calm.

 
 
jpsmedia worldairports.se 2019   terms of use